Latest Weather Observations for Oakey

IDQ60901

Issued at 10:31 pm EST Wednesday 12 August 2020 (issued every 10 minutes, with the page automatically refreshed every 10 minutes)

About weather observations | Map of Brisbane area stations | Latest observations for Brisbane area | Other Formats
Station Details ID: 041359 Name: OAKEY AERO Lat: -27.40 Lon: 151.74 Height: 405.69 m
Data from the previous 72 hours. | See also: Recent months at Oakey
Date/Time
EST
Temp
°C
App
Temp
°C
Dew
Point
°C
Rel
Hum
%
Delta-T
°C
Wind Press
QNH
hPa
Press
MSL
hPa
Rain since
9am
mm
Dir  Spd
km/h
Gust
km/h
Spd
kts
Gust
kts
12/10:00pm 13.1 9.4 7.8 70 2.7 NNE 17 17 9 9 1016.3 1016.1 0.0
12/09:30pm 13.5 10.0 7.3 66 3.1 NNE 15 17 8 9 1016.6 1016.5 0.0
12/09:00pm 13.6 9.5 7.8 68 2.9 NNE 19 20 10 11 1016.3 1016.1 0.0
12/08:30pm 13.8 10.3 8.8 72 2.6 NNE 17 19 9 10 1016.8 1016.7 0.0
12/08:00pm 12.1 9.8 7.4 73 2.3 N 9 11 5 6 1016.8 1016.7 0.0
12/07:30pm 13.9 11.3 7.7 66 3.1 NNE 11 13 6 7 1016.6 1016.5 0.0
12/07:00pm 15.0 12.6 7.1 59 4.0 N 9 9 5 5 1016.3 1016.1 0.0
12/06:30pm 16.3 14.3 7.3 55 4.6 N 7 9 4 5 1016.1 1015.9 0.0
12/06:00pm 15.7 13.2 6.7 55 4.5 NNW 9 11 5 6 1015.8 1015.6 0.0
12/05:30pm 19.1 17.1 7.2 46 6.1 NNW 7 9 4 5 1015.4 1015.3 0.0
12/05:00pm 21.1 18.6 6.6 39 7.5 N 9 13 5 7 1015.0 1014.9 0.0
12/04:30pm 21.9 17.7 5.8 35 8.2 N 17 20 9 11 1014.7 1014.6 0.0
12/04:00pm 22.2 17.6 5.6 34 8.5 N 19 32 10 17 1014.2 1014.0 0.0
12/03:30pm 22.2 17.9 5.2 33 8.6 NW 17 24 9 13 1014.9 1014.8 0.0
12/03:00pm 22.6 18.0 6.4 35 8.4 NW 20 26 11 14 1015.3 1015.2 0.0
12/02:30pm 22.3 18.3 6.5 36 8.2 NW 17 26 9 14 1015.8 1015.6 0.0
12/02:00pm 21.8 17.1 6.1 36 8.1 WNW 20 26 11 14 1016.2 1016.0 0.0
12/01:30pm 22.1 18.5 6.7 37 8.0 WNW 15 20 8 11 1016.6 1016.5 0.0
12/01:00pm 21.1 17.6 7.3 41 7.2 NW 15 24 8 13 1017.0 1016.9 0.0
12/12:30pm 20.5 17.8 7.5 43 6.8 NNW 11 20 6 11 1017.6 1017.5 0.0
12/12:00pm 19.8 15.6 8.2 47 6.1 NNW 20 28 11 15 1018.3 1018.1 0.0
12/11:30am 19.6 16.3 8.0 47 6.1 NW 15 22 8 12 1018.8 1018.7 0.0
12/11:00am 19.7 16.3 9.0 50 5.7 NW 17 24 9 13 1019.5 1019.4 0.0
12/10:30am 18.9 15.9 9.4 54 5.1 NNW 15 24 8 13 1019.9 1019.8 0.0
12/10:00am 18.7 16.0 11.8 64 3.9 N 17 24 9 13 1020.4 1020.3 0.0
12/09:30am 18.0 15.8 12.2 69 3.3 N 15 28 8 15 1020.4 1020.3 0.0
12/09:00am 15.7 15.1 12.3 80 1.9 NNE 7 13 4 7 1020.9 1020.8 0.0
12/08:30am 14.7 14.9 14.2 97 0.3 NE 6 7 3 4 1020.6 1020.5 0.0
12/08:00am 12.8 12.4 12.5 98 0.2 NE 6 7 3 4 1020.5 1020.4 0.0
12/07:30am 11.6 10.9 11.3 98 0.2 E 6 9 3 5 1020.3 1020.2 0.0
12/07:00am 9.0 6.6 8.7 98 0.1 ESE 11 13 6 7 1020.0 1019.9 0.0
12/06:30am 7.4 5.0 7.1 98 0.1 ESE 9 9 5 5 1019.6 1019.5 0.0
12/06:00am 7.9 4.9 7.6 98 0.1 E 13 15 7 8 1019.0 1018.9 0.0
12/05:30am 7.3 4.1 6.9 97 0.2 E 13 15 7 8 1018.9 1018.8 0.0
12/05:00am 8.3 6.1 8.0 98 0.1 E 9 9 5 5 1018.8 1018.7 0.0
12/04:30am 8.3 5.8 8.0 98 0.1 E 11 13 6 7 1018.4 1018.2 0.0
12/04:00am 8.4 5.5 8.0 97 0.2 ENE 13 15 7 8 1018.4 1018.2 0.0
12/03:30am 8.7 6.2 8.3 97 0.2 ENE 11 13 6 7 1018.5 1018.3 0.0
12/03:00am 8.5 5.2 8.1 97 0.2 E 15 15 8 8 1018.5 1018.3 0.0
12/02:30am 9.2 7.2 8.7 97 0.2 E 9 13 5 7 1019.2 1019.1 0.0
12/02:00am 9.9 7.3 9.4 97 0.3 ENE 13 15 7 8 1018.9 1018.8 0.0
12/01:30am 10.1 7.6 9.6 97 0.3 ENE 13 17 7 9 1019.3 1019.2 0.0
12/01:00am 10.0 7.1 9.5 97 0.3 ENE 15 19 8 10 1019.2 1019.1 0.0
12/12:30am 9.5 6.3 8.6 94 0.4 ENE 15 17 8 9 1019.3 1019.2 0.0
12/12:00am 10.2 7.2 9.4 95 0.4 ENE 15 19 8 10 1019.1 1019.0 0.0
 
Date/Time
EST
Temp
°C
App
Temp
°C
Dew
Point
°C
Rel
Hum
%
Delta-T
°C
Wind Press
QNH
hPa
Press
MSL
hPa
Rain since
9am
mm
Dir  Spd
km/h
Gust
km/h
Spd
kts
Gust
kts
11/11:30pm 9.4 6.6 8.6 95 0.4 ENE 13 15 7 8 1019.1 1019.0 0.0
11/11:00pm 8.9 5.9 7.7 92 0.6 ENE 13 13 7 7 1018.9 1018.8 0.0
11/10:30pm 9.6 6.6 7.9 89 0.8 E 13 13 7 7 1018.9 1018.8 0.0
11/10:00pm 10.1 8.9 7.9 86 1.1 ENE 4 11 2 6 1018.9 1018.8 0.0
11/09:30pm 10.6 10.2 8.4 86 1.1 CALM 0 0 0 0 1018.8 1018.7 0.0
11/09:00pm 10.9 7.8 8.7 86 1.1 ENE 15 17 8 9 1018.8 1018.7 0.0
11/08:30pm 10.5 8.0 6.6 77 1.9 ENE 9 9 5 5 1018.9 1018.8 0.0
11/08:00pm 13.3 11.2 8.4 72 2.5 NE 9 9 5 5 1018.3 1018.1 0.0
11/07:30pm 12.5 11.0 8.6 77 2.0 NE 6 7 3 4 1018.2 1018.0 0.0
11/07:00pm 13.4 11.3 8.3 71 2.6 E 9 11 5 6 1017.8 1017.7 0.0
11/06:30pm 13.4 10.5 8.0 70 2.7 ENE 13 13 7 7 1017.5 1017.4 0.0
11/06:00pm 15.0 12.0 7.8 62 3.7 ENE 13 15 7 8 1017.1 1017.0 0.0
11/05:30pm 17.6 13.8 7.6 52 5.2 ENE 17 20 9 11 1016.8 1016.7 0.0
11/05:00pm 19.3 15.5 7.4 46 6.2 ENE 17 20 9 11 1016.7 1016.6 0.0
11/04:30pm 20.3 17.3 5.9 39 7.3 N 11 17 6 9 1016.4 1016.2 0.0
11/04:00pm 21.0 18.0 6.2 38 7.6 ENE 11 17 6 9 1016.2 1016.0 0.0
11/03:30pm 20.9 18.5 6.8 40 7.3 E 9 15 5 8 1016.1 1015.9 0.0
11/03:00pm 21.3 19.4 6.8 39 7.5 W 6 11 3 6 1016.1 1015.9 0.0
11/02:30pm 20.7 19.2 8.4 45 6.6 SW 6 13 3 7 1016.3 1016.1 0.0
11/02:00pm 20.6 18.8 7.9 44 6.7 NNE 7 13 4 7 1016.7 1016.6 0.0
11/01:30pm 19.8 18.2 8.2 47 6.1 ENE 6 11 3 6 1017.0 1016.9 0.0
11/01:00pm 19.5 18.2 9.1 51 5.6 SSE 6 9 3 5 1017.3 1017.2 0.0
11/12:30pm 18.1 17.1 8.9 55 4.9 W 4 11 2 6 1017.9 1017.8 0.0
11/12:00pm 17.0 14.9 8.4 57 4.5 E 9 15 5 8 1018.5 1018.3 0.0
11/11:30am 16.4 14.5 8.9 61 3.9 NE 9 15 5 8 1019.1 1019.0 0.0
11/11:00am 14.3 12.3 8.7 69 2.9 WSW 9 13 5 7 1019.7 1019.6 0.0
11/10:30am 13.7 13.0 8.7 72 2.6 ESE 2 9 1 5 1019.8 1019.7 0.0
11/10:00am 11.6 10.4 8.1 79 1.7 WSW 4 9 2 5 1020.2 1020.1 0.0
11/09:30am 10.1 8.2 7.5 84 1.3 WSW 7 17 4 9 1020.3 1020.2 0.0
11/09:29am 10.2 8.3 7.6 84 1.3 WSW 7 17 4 9 1020.3 1020.2 0.0
11/09:00am 9.4 7.6 8.0 91 0.7 SSE 7 13 4 7 1020.1 1020.0 0.0
11/08:30am 8.0 7.4 7.6 97 0.2 CALM 0 0 0 0 1020.0 1019.9 0.0
11/08:00am 7.4 5.9 7.0 97 0.2 S 4 7 2 4 1019.9 1019.8 0.0
11/07:30am 7.3 6.2 6.9 97 0.2 S 2 9 1 5 1019.6 1019.5 0.0
11/07:00am 7.5 5.7 7.1 97 0.2 SE 6 9 3 5 1019.3 1019.2 0.0
11/06:30am 7.4 5.4 7.0 97 0.2 SW 7 7 4 4 1019.0 1018.9 0.0
11/06:00am 7.6 5.6 7.2 97 0.2 S 7 9 4 5 1018.7 1018.5 0.0
11/05:30am 7.7 5.7 7.3 97 0.2 SSW 7 11 4 6 1018.5 1018.3 0.0
11/05:00am 7.6 5.8 7.2 97 0.2 WSW 6 9 3 5 1018.3 1018.1 0.0
11/04:30am 7.8 5.9 7.4 97 0.2 WSW 7 9 4 5 1017.9 1017.8 0.0
11/04:00am 8.0 5.8 7.7 98 0.1 W 9 13 5 7 1017.9 1017.8 0.0
11/03:30am 7.5 5.1 7.2 98 0.1 W 9 11 5 6 1017.8 1017.7 0.0
11/03:00am 7.6 5.3 7.3 98 0.1 WNW 9 11 5 6 1018.0 1017.9 0.0
11/02:30am 7.3 5.5 7.0 98 0.1 NW 6 9 3 5 1017.8 1017.7 0.0
11/02:00am 7.2 5.2 6.9 98 0.1 NW 7 11 4 6 1017.9 1017.8 0.0
11/01:30am 7.0 4.5 6.7 98 0.1 NW 9 11 5 6 1018.0 1017.9 0.0
11/01:00am 6.3 4.1 6.0 98 0.1 NNW 7 7 4 4 1018.2 1018.0 0.0
11/12:30am 5.0 2.1 4.6 97 0.2 N 9 11 5 6 1018.2 1018.0 0.0
11/12:28am 4.8 1.9 4.4 97 0.2 NNE 9 11 5 6 1018.2 1018.0 0.0
11/12:00am 4.7 2.1 4.3 97 0.2 W 7 11 4 6 1017.9 1017.8 0.0
 
Date/Time
EST
Temp
°C
App
Temp
°C
Dew
Point
°C
Rel
Hum
%
Delta-T
°C
Wind Press
QNH
hPa
Press
MSL
hPa
Rain since
9am
mm
Dir  Spd
km/h
Gust
km/h
Spd
kts
Gust
kts
10/11:30pm 5.6 2.0 5.2 97 0.2 WSW 13 15 7 8 1017.9 1017.8 0.0
10/11:00pm 5.4 2.2 5.0 97 0.2 WNW 11 13 6 7 1017.9 1017.8 0.0
10/10:30pm 5.9 3.6 5.5 97 0.2 NW 7 11 4 6 1017.9 1017.8 0.0
10/10:00pm 6.1 3.4 5.5 96 0.3 SW 9 13 5 7 1017.9 1017.8 0.0
10/09:30pm 6.1 3.8 5.5 96 0.3 N 7 9 4 5 1018.0 1017.9 0.0
10/09:00pm 6.6 3.6 5.9 95 0.3 W 11 13 6 7 1018.0 1017.9 0.0
10/08:30pm 7.3 4.3 5.8 90 0.7 WSW 11 15 6 8 1018.0 1017.9 0.0
10/08:00pm 9.0 5.0 6.8 86 1.0 SW 17 20 9 11 1017.7 1017.6 0.0
10/07:30pm 8.8 4.2 6.3 84 1.2 SW 20 24 11 13 1017.3 1017.2 0.0
10/07:00pm 8.8 4.2 6.3 84 1.2 SW 20 24 11 13 1016.8 1016.7 0.0
10/06:30pm 9.3 4.3 6.4 82 1.4 SW 22 26 12 14 1016.5 1016.3 0.0
10/06:00pm 9.7 4.3 6.2 79 1.7 SW 24 30 13 16 1016.1 1015.9 0.0
10/05:30pm 10.5 5.4 6.1 74 2.1 WSW 22 28 12 15 1015.8 1015.6 0.0
10/05:00pm 11.5 6.0 5.8 68 2.7 SW 24 35 13 19 1015.6 1015.4 0.0
10/04:30pm 11.8 5.1 5.7 66 2.9 SSW 30 37 16 20 1015.2 1015.1 0.0
10/04:00pm 12.1 5.0 5.5 64 3.1 SW 32 41 17 22 1014.7 1014.6 0.0
10/03:30pm 11.4 4.2 5.1 65 3.0 SW 32 43 17 23 1014.6 1014.5 0.0
10/03:00pm 11.6 4.5 5.3 65 3.0 SW 32 43 17 23 1014.2 1014.0 0.0
10/02:30pm 12.1 4.8 5.3 63 3.2 SW 33 46 18 25 1014.2 1014.0 0.0
10/02:00pm 11.9 3.4 5.1 63 3.2 SW 39 50 21 27 1013.8 1013.6 0.0
10/01:30pm 12.4 4.1 6.2 66 3.0 SW 39 50 21 27 1013.6 1013.4 0.0
10/01:00pm 12.4 3.7 6.0 65 3.1 SW 41 50 22 27 1013.5 1013.3 0.0
10/12:30pm 11.8 2.9 5.2 64 3.1 WSW 41 52 22 28 1013.6 1013.4 0.0
10/12:00pm 11.7 2.2 4.9 63 3.2 WSW 44 54 24 29 1013.9 1013.7 0.0
10/11:30am 11.6 2.8 5.7 67 2.8 WSW 41 54 22 29 1014.4 1014.2 0.0
10/11:00am 11.7 3.0 5.8 67 2.8 SW 41 50 22 27 1014.6 1014.5 0.0
10/10:30am 10.5 2.0 5.3 70 2.4 SW 39 52 21 28 1014.8 1014.7 0.0
10/10:00am 9.8 1.4 5.4 74 2.0 SW 39 48 21 26 1014.8 1014.7 0.0
10/09:30am 9.8 1.4 5.4 74 2.0 SW 39 46 21 25 1015.0 1014.9 0.0
10/09:00am 10.6 3.1 6.2 74 2.1 WSW 35 46 19 25 1014.7 1014.6 0.0
10/08:30am 9.9 2.5 6.6 80 1.6 WSW 35 44 19 24 1014.4 1014.2 0.0
10/08:07am 8.9 3.0 7.7 92 0.6 WSW 28 39 15 21 1014.2 1014.0 0.0
10/08:00am 8.7 3.3 7.8 94 0.4 WSW 26 33 14 18 1014.1 1013.9 0.0
10/07:37am 8.5 3.5 8.1 97 0.2 WSW 24 30 13 16 1013.9 1013.7 0.0
10/07:30am 8.3 3.3 7.9 97 0.2 WSW 24 30 13 16 1013.8 1013.6 0.0
10/07:00am 7.3 2.8 6.9 97 0.2 WSW 20 24 11 13 1013.5 1013.3 0.0
10/06:30am 6.6 2.1 6.2 97 0.2 WSW 19 22 10 12 1013.4 1013.2 0.0
10/06:00am 5.9 1.7 5.5 97 0.2 WSW 17 20 9 11 1013.2 1013.0 0.0
10/05:30am 6.3 1.8 5.9 97 0.2 SW 19 20 10 11 1013.0 1012.8 0.0
10/05:23am 6.6 2.1 6.2 97 0.2 WSW 19 26 10 14 1012.8 1012.7 0.0
10/05:00am 7.2 2.9 6.8 97 0.2 W 19 26 10 14 1012.7 1012.6 0.0
10/04:45am 6.4 2.3 6.0 97 0.2 W 17 20 9 11 1012.7 1012.6 0.0
10/04:37am 6.2 2.0 5.8 97 0.2 WSW 17 20 9 11 1012.5 1012.4 0.0
10/04:30am 6.2 2.0 5.8 97 0.2 WSW 17 20 9 11 1012.4 1012.3 0.0
10/04:18am 6.5 2.4 6.1 97 0.2 W 17 20 9 11 1012.3 1012.1 0.0
10/04:00am 6.8 2.7 6.4 97 0.2 WSW 17 20 9 11 1012.4 1012.3 0.0
10/03:30am 7.1 2.5 6.4 95 0.3 WSW 20 26 11 14 1012.6 1012.5 0.0
10/03:00am 7.2 2.5 6.1 93 0.5 WSW 20 26 11 14 1012.8 1012.7 0.0
10/02:30am 7.5 3.4 6.3 92 0.6 WSW 17 20 9 11 1013.1 1012.9 0.0
10/02:00am 6.5 3.0 5.3 92 0.5 WSW 13 15 7 8 1013.4 1013.2 0.0
10/01:30am 5.3 2.7 4.0 91 0.6 W 7 11 4 6 1013.5 1013.3 0.0
10/01:00am 6.4 2.3 4.6 88 0.8 W 15 19 8 10 1013.7 1013.5 0.0
10/12:30am 7.0 2.6 4.8 86 1.0 W 17 19 9 10 1013.9 1013.7 0.0
10/12:00am 6.3 2.7 4.9 91 0.6 W 13 15 7 8 1014.1 1013.9 0.0
 
Date/Time
EST
Temp
°C
App
Temp
°C
Dew
Point
°C
Rel
Hum
%
Delta-T
°C
Wind Press
QNH
hPa
Press
MSL
hPa
Rain since
9am
mm
Dir  Spd
km/h
Gust
km/h
Spd
kts
Gust
kts
09/11:30pm 6.3 2.2 4.3 87 0.9 W 15 17 8 9 1014.2 1014.0 0.0
09/11:00pm 7.0 2.6 4.8 86 1.0 W 17 20 9 11 1014.3 1014.1 0.0

Latest Capital City Observations: Canberra | Sydney | Melbourne | Brisbane | Adelaide | Perth | Hobart | Darwin

Other formats

Comma delimited format used in spreadsheet applications
http://www.bom.gov.au/fwo/IDQ60901/IDQ60901.94552.axf

JavaScript Object Notation format (JSON) in row-major order
http://www.bom.gov.au/fwo/IDQ60901/IDQ60901.94552.json

Data quality

Most of these data are generated automatically and are frequently updated. Quality checks on data are not normally performed. It is possible for incorrect values to appear. Refer to information at About Latest Weather Observations and please check the disclaimer before using these data.